Hovedside
METAR-TAF:

METAR-TAF

Lufthavner :

Utti lufthavn

Utti, Finland

breddegrad: 60-54N, lengdegrad: 026-56E, høyde over havet: 100 m

Gjeldene værobservasjon

Denne rapporten ble laget for 18 minutter siden, klokken 20:20 UTC
Vind 16 kt fra Vest-sørvest, skiftende mellom Sør-sørvest og Vest
Temperatur 6°C
Luftfuktighet 87%
Trykk 1011 hPa
Sikt 10 km eller mer
Overskyet i en høyde av 800 ft
lette regnbyger

METAR: EFUT 142020Z AUTO 24016KT 210V270 9999 -SHRA OVC008 06/04 Q1011

Tid: 22:38 (20:38 UTC)

Varsel

Denne rapporten ble laget for 9 timer og 2 minutter siden, klokken 11:36 UTC
Varsel gyldig fra 14. klokken 12 UTC til 14. klokken 14 UTC
Vind 9 kt fra Sør-sørøst
Sikt: 5000 m
Overskyet i en høyde av 400 ft
Sannsynlighet 40%
fra 14. klokken 12 UTC til 14. klokken 14 UTC
Sikt: 7000 m
Overskyet i en høyde av 800 ft

TAF: EFUT 141136Z 1412/1414 16009KT 5000 OVC004 PROB40 1412/1414 7000 OVC008

Værobservasjoner og værvarsel for over 4000 flyplasser (METAR- og TAF-rapporter).

Tilgjengelige stasjoner er representert av de røde og gule prikkene på kartet.

Hold musepekeren over prikken for å se navnet på stasjonen.

Klikk så for å se værobservasjoner og -varsler.

For å forandre kartet kan du klikke på den grønne knappen med svart kryss for å zoome inn, på den grønne knappen med strek for å zoome ut, eller på de grønne pilene for å se tilstøtende kart.


METAR-TAF: